createdAt,value
2023-04-19T00:02:16.814Z,101457.34
2023-04-19T00:04:47.753Z,101455.75
2023-04-19T00:07:15.072Z,101455.44
2023-04-19T00:09:42.303Z,101463.41
2023-04-19T00:12:09.571Z,101457.78
2023-04-19T00:14:36.831Z,101456.66
2023-04-19T00:17:04.185Z,101460.25
2023-04-19T00:19:31.490Z,101470.19
2023-04-19T00:21:59.446Z,101460.03
2023-04-19T00:24:26.773Z,101463.50
2023-04-19T00:26:54.097Z,101458.69
2023-04-19T00:29:21.427Z,101456.88
2023-04-19T00:31:49.316Z,101454.09
2023-04-19T00:34:16.962Z,101458.59
2023-04-19T00:36:44.350Z,101450.63
2023-04-19T00:39:13.671Z,101452.56
2023-04-19T00:41:40.983Z,101444.59
2023-04-19T00:44:08.427Z,101460.84
2023-04-19T00:46:37.809Z,101449.50
2023-04-19T00:49:05.360Z,101443.47
2023-04-19T00:51:33.622Z,101451.84
2023-04-19T00:54:03.097Z,101447.78
2023-04-19T00:56:30.964Z,101453.69
2023-04-19T00:58:59.202Z,101452.63
2023-04-19T01:01:26.511Z,101451.66
2023-04-19T01:03:54.046Z,101450.31
2023-04-19T01:06:21.597Z,101450.53
2023-04-19T01:08:49.341Z,101446.50
2023-04-19T01:11:16.558Z,101453.69
2023-04-19T01:13:45.530Z,101446.50
2023-04-19T01:16:12.847Z,101440.91
2023-04-19T01:18:40.825Z,101442.34
2023-04-19T01:21:09.417Z,101447.03
2023-04-19T01:23:38.957Z,101443.16
2023-04-19T01:26:06.572Z,101444.06
2023-04-19T01:28:33.838Z,101439.47
2023-04-19T01:31:01.287Z,101441.31
2023-04-19T01:33:28.493Z,101451.13
2023-04-19T01:35:55.856Z,101443.66
2023-04-19T01:38:23.216Z,101438.66
2023-04-19T01:40:50.653Z,101445.91
2023-04-19T01:43:18.739Z,101439.56
2023-04-19T01:45:46.290Z,101434.84
2023-04-19T01:48:13.543Z,101439.25
2023-04-19T01:50:40.932Z,101439.97
2023-04-19T01:53:08.247Z,101436.06
2023-04-19T01:55:35.505Z,101437.31
2023-04-19T01:58:03.045Z,101433.81
2023-04-19T02:00:30.351Z,101437.09
2023-04-19T02:02:57.912Z,101434.97
2023-04-19T02:05:25.250Z,101439.03
2023-04-19T02:07:54.330Z,101437.31
2023-04-19T02:10:21.653Z,101435.66
2023-04-19T02:12:49.003Z,101439.25
2023-04-19T02:15:16.320Z,101428.19
2023-04-19T02:17:43.585Z,101432.25
2023-04-19T02:20:11.095Z,101427.56
2023-04-19T02:22:38.721Z,101422.88
2023-04-19T02:25:06.888Z,101434.66
2023-04-19T02:27:34.838Z,101429.44
2023-04-19T02:30:02.130Z,101433.81
2023-04-19T02:32:32.022Z,101428.28
2023-04-19T02:34:59.392Z,101429.69
2023-04-19T02:37:26.671Z,101431.56
2023-04-19T02:39:57.610Z,101429.69
2023-04-19T02:42:24.894Z,101429.06
2023-04-19T02:44:54.326Z,101430.63
2023-04-19T02:47:24.804Z,101417.16
2023-04-19T02:49:52.215Z,101425.16
2023-04-19T02:52:20.534Z,101426.31
2023-04-19T02:54:48.501Z,101433.78
2023-04-19T02:57:15.756Z,101428.06
2023-04-19T02:59:44.215Z,101430.56
2023-04-19T03:02:11.555Z,101435.41
2023-04-19T03:04:38.952Z,101433.28
2023-04-19T03:07:06.842Z,101433.44
2023-04-19T03:09:34.329Z,101435.06
2023-04-19T03:12:01.923Z,101434.00
2023-04-19T03:14:29.334Z,101433.00
2023-04-19T03:16:56.640Z,101428.97
2023-04-19T03:19:24.352Z,101430.47
2023-04-19T03:21:52.657Z,101432.66
2023-04-19T03:24:31.965Z,101426.63
2023-04-19T03:27:07.184Z,101423.47
2023-04-19T03:29:34.452Z,101424.97
2023-04-19T03:32:08.872Z,101424.63
2023-04-19T03:34:36.332Z,101427.81
2023-04-19T03:37:03.611Z,101440.41
2023-04-19T03:39:32.466Z,101430.38
2023-04-19T03:42:03.998Z,101436.78
2023-04-19T03:44:54.476Z,101433.06
2023-04-19T03:47:22.795Z,101430.72
2023-04-19T03:49:51.792Z,101425.91
2023-04-19T03:52:19.349Z,101434.31
2023-04-19T03:54:46.600Z,101429.94
2023-04-19T03:57:34.103Z,101432.66
2023-04-19T04:00:09.761Z,101431.91
2023-04-19T04:02:57.196Z,101423.94
2023-04-19T04:05:27.802Z,101430.47
2023-04-19T04:07:56.371Z,101433.75
2023-04-19T04:10:23.909Z,101426.03
2023-04-19T04:12:51.705Z,101428.72
2023-04-19T04:15:26.024Z,101420.91
2023-04-19T04:17:54.681Z,101436.06
2023-04-19T04:20:22.119Z,101423.06
2023-04-19T04:22:52.729Z,101435.06
2023-04-19T04:25:23.036Z,101427.19
2023-04-19T04:27:52.487Z,101428.59
2023-04-19T04:30:21.785Z,101418.03
2023-04-19T04:32:51.406Z,101423.06
2023-04-19T04:35:19.307Z,101427.84
2023-04-19T04:37:54.326Z,101429.75
2023-04-19T04:40:21.723Z,101427.63
2023-04-19T04:42:49.618Z,101446.09
2023-04-19T04:45:18.634Z,101436.03
2023-04-19T04:47:46.493Z,101439.81
2023-04-19T04:50:14.780Z,101438.44
2023-04-19T04:52:42.061Z,101442.59
2023-04-19T04:55:24.185Z,101441.41
2023-04-19T04:57:51.577Z,101442.28
2023-04-19T05:00:28.852Z,101439.53
2023-04-19T05:03:14.362Z,101438.25
2023-04-19T05:05:47.777Z,101442.28
2023-04-19T05:08:15.077Z,101443.78
2023-04-19T05:10:42.396Z,101440.88
2023-04-19T05:13:09.967Z,101443.28
2023-04-19T05:15:37.890Z,101437.38
2023-04-19T05:18:06.043Z,101439.09
2023-04-19T05:20:36.413Z,101455.41
2023-04-19T05:23:11.629Z,101456.44
2023-04-19T05:25:39.615Z,101446.94
2023-04-19T05:28:07.041Z,101453.00
2023-04-19T05:30:44.057Z,101456.38
2023-04-19T05:33:11.547Z,101455.63
2023-04-19T05:35:39.502Z,101457.75
2023-04-19T05:38:06.999Z,101452.63
2023-04-19T05:40:35.805Z,101449.19
2023-04-19T05:43:03.046Z,101462.44
2023-04-19T05:45:30.594Z,101459.38
2023-04-19T05:47:58.218Z,101464.03
2023-04-19T05:50:44.196Z,101467.25
2023-04-19T05:53:30.443Z,101468.13
2023-04-19T05:55:58.706Z,101468.19
2023-04-19T05:58:26.145Z,101473.69
2023-04-19T06:00:53.553Z,101479.25
2023-04-19T06:03:22.939Z,101473.13
2023-04-19T06:05:51.426Z,101479.91
2023-04-19T06:08:18.920Z,101477.03
2023-04-19T06:10:54.871Z,101480.94
2023-04-19T06:13:25.855Z,101484.09
2023-04-19T06:15:53.243Z,101484.75
2023-04-19T06:18:20.611Z,101483.72
2023-04-19T06:20:48.188Z,101483.72
2023-04-19T06:23:15.639Z,101489.16
2023-04-19T06:25:42.970Z,101490.56
2023-04-19T06:28:10.956Z,101490.78
2023-04-19T06:30:38.494Z,101489.84
2023-04-19T06:33:05.976Z,101492.91
2023-04-19T06:35:33.437Z,101497.34
2023-04-19T06:38:02.110Z,101496.91
2023-04-19T06:40:29.605Z,101498.78
2023-04-19T06:42:56.842Z,101495.56
2023-04-19T06:45:24.080Z,101502.44
2023-04-19T06:47:51.405Z,101500.47
2023-04-19T06:50:18.790Z,101508.50
2023-04-19T06:52:46.038Z,101506.97
2023-04-19T06:55:13.282Z,101501.38
2023-04-19T06:57:40.913Z,101501.31
2023-04-19T07:00:08.849Z,101501.69
2023-04-19T07:02:36.350Z,101505.19
2023-04-19T07:05:04.130Z,101505.25
2023-04-19T07:07:33.259Z,101507.78
2023-04-19T07:10:00.613Z,101506.97
2023-04-19T07:12:27.952Z,101503.09
2023-04-19T07:14:57.265Z,101499.53
2023-04-19T07:17:24.635Z,101501.59
2023-04-19T07:19:51.942Z,101508.09
2023-04-19T07:22:19.097Z,101497.63
2023-04-19T07:24:46.364Z,101489.47
2023-04-19T07:27:14.486Z,101491.41
2023-04-19T07:29:41.838Z,101498.88
2023-04-19T07:32:09.491Z,101504.53
2023-04-19T07:34:38.095Z,101499.72
2023-04-19T07:37:05.327Z,101505.53
2023-04-19T07:39:32.965Z,101504.84
2023-04-19T07:42:01.528Z,101511.56
2023-04-19T07:44:28.826Z,101505.25
2023-04-19T07:46:56.225Z,101509.75
2023-04-19T07:49:23.785Z,101508.22
2023-04-19T07:51:51.404Z,101519.19
2023-04-19T07:54:20.585Z,101508.03
2023-04-19T07:56:47.767Z,101497.91
2023-04-19T07:59:16.365Z,101503.03
2023-04-19T08:01:43.769Z,101497.25
2023-04-19T08:04:11.312Z,101497.06
2023-04-19T08:06:40.647Z,101498.66
2023-04-19T08:09:08.059Z,101502.25
2023-04-19T08:11:35.290Z,101500.84
2023-04-19T08:14:11.872Z,101505.06
2023-04-19T08:19:19.410Z,101498.72
2023-04-19T08:21:46.773Z,101495.81
2023-04-19T08:24:14.340Z,101496.81
2023-04-19T08:26:42.534Z,101493.44
2023-04-19T08:29:09.857Z,101498.88
2023-04-19T08:31:37.555Z,101498.66
2023-04-19T08:34:04.903Z,101495.59
2023-04-19T08:36:39.130Z,101485.34
2023-04-19T08:39:28.983Z,101484.53
2023-04-19T08:42:06.811Z,101490.69
2023-04-19T08:44:51.032Z,101490.25
2023-04-19T08:47:33.594Z,101490.31
2023-04-19T08:52:47.968Z,101487.97
2023-04-19T08:55:19.658Z,101485.38
2023-04-19T08:57:46.988Z,101483.50
2023-04-19T09:00:15.899Z,101489.59
2023-04-19T09:02:48.302Z,101484.56
2023-04-19T09:05:18.383Z,101483.91
2023-04-19T09:07:46.677Z,101493.00
2023-04-19T09:10:19.585Z,101494.78
2023-04-19T09:13:01.998Z,101494.78
2023-04-19T09:15:41.916Z,101489.13
2023-04-19T09:18:10.332Z,101489.59
2023-04-19T09:20:42.683Z,101489.06
2023-04-19T09:23:15.044Z,101488.81
2023-04-19T09:28:28.820Z,101490.31
2023-04-19T09:31:05.744Z,101484.88
2023-04-19T09:33:44.615Z,101480.09
2023-04-19T09:36:14.594Z,101481.06
2023-04-19T09:38:49.698Z,101479.28
2023-04-19T09:41:20.864Z,101464.47
2023-04-19T09:46:36.291Z,101457.75
2023-04-19T09:49:30.208Z,101464.03
2023-04-19T09:52:07.813Z,101461.47
2023-04-19T09:54:35.068Z,101453.47
2023-04-19T09:57:02.846Z,101451.03
2023-04-19T09:59:30.559Z,101452.00
2023-04-19T10:01:58.827Z,101448.22
2023-04-19T10:04:38.430Z,101440.06
2023-04-19T10:12:45.632Z,101438.13
2023-04-19T10:15:06.670Z,101430.94
2023-04-19T10:17:34.369Z,101431.94
2023-04-19T10:20:07.784Z,101434.38
2023-04-19T10:22:37.870Z,101430.28
2023-04-19T10:25:15.820Z,101433.56
2023-04-19T10:27:49.000Z,101426.38
2023-04-19T10:30:21.322Z,101421.63
2023-04-19T10:33:07.707Z,101438.63
2023-04-19T10:35:37.651Z,101426.72
2023-04-19T10:38:12.818Z,101414.28
2023-04-19T10:40:52.855Z,101418.06
2023-04-19T10:43:20.849Z,101418.22
2023-04-19T10:45:51.772Z,101429.66
2023-04-19T10:48:33.365Z,101420.19
2023-04-19T10:51:16.074Z,101419.00
2023-04-19T10:53:47.266Z,101418.69
2023-04-19T10:56:22.174Z,101413.28
2023-04-19T10:59:01.802Z,101411.03
2023-04-19T11:01:45.991Z,101402.38
2023-04-19T11:04:23.661Z,101405.25
2023-04-19T11:06:55.414Z,101392.47
2023-04-19T11:09:29.627Z,101397.31
2023-04-19T11:12:16.890Z,101382.50
2023-04-19T11:15:02.947Z,101384.28
2023-04-19T11:17:32.186Z,101377.28
2023-04-19T11:20:07.394Z,101378.38
2023-04-19T11:22:42.808Z,101370.03
2023-04-19T11:25:10.906Z,101371.81
2023-04-19T11:27:39.361Z,101375.22
2023-04-19T11:30:09.335Z,101364.78
2023-04-19T11:32:37.067Z,101362.78
2023-04-19T11:35:06.577Z,101358.44
2023-04-19T11:37:36.343Z,101360.84
2023-04-19T11:40:07.829Z,101374.16
2023-04-19T11:42:36.429Z,101356.69
2023-04-19T11:45:04.071Z,101348.44
2023-04-19T11:47:32.524Z,101354.53
2023-04-19T11:50:38.295Z,101342.53
2023-04-19T11:53:17.357Z,101342.94
2023-04-19T11:55:51.255Z,101348.44
2023-04-19T11:58:32.267Z,101346.94
2023-04-19T12:01:09.862Z,101339.06
2023-04-19T12:03:51.528Z,101336.75
2023-04-19T12:06:24.037Z,101338.41
2023-04-19T12:08:52.704Z,101332.56
2023-04-19T12:11:23.420Z,101326.31
2023-04-19T12:14:11.121Z,101320.75
2023-04-19T12:16:38.769Z,101324.50
2023-04-19T12:19:14.360Z,101319.94
2023-04-19T12:21:41.801Z,101318.78
2023-04-19T12:24:09.487Z,101322.34
2023-04-19T12:26:37.373Z,101310.66
2023-04-19T12:29:05.718Z,101323.09
2023-04-19T12:31:33.694Z,101316.34
2023-04-19T12:34:01.124Z,101322.03
2023-04-19T12:36:28.464Z,101315.13
2023-04-19T12:38:55.914Z,101314.81
2023-04-19T12:41:23.247Z,101308.47
2023-04-19T12:43:50.616Z,101308.94
2023-04-19T12:46:17.995Z,101307.56
2023-04-19T12:48:46.855Z,101299.09
2023-04-19T12:51:14.136Z,101302.84
2023-04-19T12:53:51.158Z,101306.88
2023-04-19T12:56:18.727Z,101294.69
2023-04-19T12:58:46.028Z,101296.31
2023-04-19T13:01:13.603Z,101302.47
2023-04-19T13:03:41.102Z,101289.97
2023-04-19T13:06:08.919Z,101302.59
2023-04-19T13:08:44.749Z,101288.28
2023-04-19T13:11:14.349Z,101287.81
2023-04-19T13:13:44.470Z,101284.22
2023-04-19T13:16:11.790Z,101281.78
2023-04-19T13:18:39.041Z,101286.78
2023-04-19T13:21:08.330Z,101282.59
2023-04-19T13:23:36.310Z,101276.69
2023-04-19T13:26:03.867Z,101283.50
2023-04-19T13:28:31.457Z,101272.97
2023-04-19T13:30:58.826Z,101262.06
2023-04-19T13:33:26.935Z,101255.34
2023-04-19T13:35:54.237Z,101261.94
2023-04-19T13:38:21.531Z,101261.31
2023-04-19T13:40:48.889Z,101264.25
2023-04-19T13:43:16.618Z,101263.16
2023-04-19T13:45:43.879Z,101255.13
2023-04-19T13:48:11.376Z,101263.78
2023-04-19T13:50:39.293Z,101253.28
2023-04-19T13:53:06.629Z,101255.31
2023-04-19T13:55:34.030Z,101242.44
2023-04-19T13:58:01.800Z,101246.13
2023-04-19T14:00:29.173Z,101245.69
2023-04-19T14:02:56.988Z,101241.94
2023-04-19T14:05:24.465Z,101238.81
2023-04-19T14:07:52.488Z,101241.94
2023-04-19T14:10:19.783Z,101231.16
2023-04-19T14:12:47.578Z,101225.00
2023-04-19T14:15:15.097Z,101220.72
2023-04-19T14:17:42.762Z,101223.44
2023-04-19T14:20:11.211Z,101222.28
2023-04-19T14:22:39.023Z,101214.50
2023-04-19T14:25:06.876Z,101224.53
2023-04-19T14:27:34.326Z,101216.16
2023-04-19T14:30:01.921Z,101215.94
2023-04-19T14:32:29.200Z,101211.50
2023-04-19T14:34:56.598Z,101207.13
2023-04-19T14:37:24.787Z,101213.66
2023-04-19T14:39:52.685Z,101227.25
2023-04-19T14:42:22.645Z,101209.91
2023-04-19T14:44:51.684Z,101208.53
2023-04-19T14:47:19.301Z,101227.31
2023-04-19T14:49:46.705Z,101217.59
2023-04-19T14:52:13.962Z,101219.91
2023-04-19T14:54:41.868Z,101210.72
2023-04-19T14:57:09.534Z,101206.06
2023-04-19T14:59:37.408Z,101200.00
2023-04-19T15:02:05.572Z,101200.16
2023-04-19T15:04:39.015Z,101203.06
2023-04-19T15:07:08.173Z,101201.00
2023-04-19T15:09:35.498Z,101198.44
2023-04-19T15:12:02.921Z,101209.47
2023-04-19T15:14:30.169Z,101195.16
2023-04-19T15:16:58.295Z,101198.56
2023-04-19T15:19:25.830Z,101200.53
2023-04-19T15:21:53.663Z,101199.69
2023-04-19T15:24:20.857Z,101188.00
2023-04-19T15:26:48.295Z,101184.56
2023-04-19T15:29:15.809Z,101183.19
2023-04-19T15:31:43.455Z,101177.88
2023-04-19T15:34:10.707Z,101186.25
2023-04-19T15:36:38.103Z,101183.09
2023-04-19T15:39:05.460Z,101190.41
2023-04-19T15:41:32.681Z,101190.28
2023-04-19T15:43:59.917Z,101176.38
2023-04-19T15:46:27.310Z,101179.06
2023-04-19T15:48:54.737Z,101164.19
2023-04-19T15:51:24.123Z,101180.28
2023-04-19T15:53:52.129Z,101180.19
2023-04-19T15:56:20.350Z,101190.16
2023-04-19T15:58:47.676Z,101183.66
2023-04-19T16:01:16.411Z,101176.25
2023-04-19T16:03:45.974Z,101183.06
2023-04-19T16:06:13.787Z,101178.44
2023-04-19T16:08:41.130Z,101187.22
2023-04-19T16:11:08.665Z,101179.94
2023-04-19T16:13:36.050Z,101185.28
2023-04-19T16:16:03.392Z,101192.13
2023-04-19T16:18:30.857Z,101189.22
2023-04-19T16:20:58.161Z,101189.97
2023-04-19T16:23:25.675Z,101186.94
2023-04-19T16:25:54.264Z,101200.44
2023-04-19T16:28:23.594Z,101198.06
2023-04-19T16:30:50.954Z,101191.03
2023-04-19T16:33:18.398Z,101187.19
2023-04-19T16:35:45.827Z,101197.84
2023-04-19T16:38:13.119Z,101200.97
2023-04-19T16:40:40.379Z,101186.56
2023-04-19T16:43:07.630Z,101194.72
2023-04-19T16:45:34.888Z,101197.53
2023-04-19T16:48:02.400Z,101194.75
2023-04-19T16:50:29.689Z,101186.78
2023-04-19T16:52:56.897Z,101175.94
2023-04-19T16:55:24.304Z,101178.97
2023-04-19T16:57:53.671Z,101180.34
2023-04-19T17:00:21.967Z,101186.13
2023-04-19T17:02:49.482Z,101186.31
2023-04-19T17:05:17.201Z,101180.84
2023-04-19T17:07:44.572Z,101184.31
2023-04-19T17:10:12.609Z,101179.09
2023-04-19T17:12:40.162Z,101186.72
2023-04-19T17:15:07.966Z,101175.41
2023-04-19T17:17:35.559Z,101173.94
2023-04-19T17:20:04.296Z,101182.75
2023-04-19T17:22:31.523Z,101178.72
2023-04-19T17:24:58.977Z,101179.06
2023-04-19T17:27:28.871Z,101176.47
2023-04-19T17:29:56.037Z,101169.56
2023-04-19T17:32:23.384Z,101172.59
2023-04-19T17:34:50.806Z,101181.06
2023-04-19T17:37:18.110Z,101172.75
2023-04-19T17:39:45.343Z,101162.72
2023-04-19T17:42:12.547Z,101166.94
2023-04-19T17:44:39.865Z,101160.56
2023-04-19T17:47:07.319Z,101164.44
2023-04-19T17:49:34.640Z,101160.63
2023-04-19T17:52:02.298Z,101156.22
2023-04-19T17:54:29.601Z,101172.06
2023-04-19T17:56:59.451Z,101166.88
2023-04-19T17:59:26.851Z,101167.00
2023-04-19T18:01:54.308Z,101164.91
2023-04-19T18:04:21.885Z,101165.28
2023-04-19T18:06:49.803Z,101173.56
2023-04-19T18:09:18.372Z,101169.16
2023-04-19T18:11:46.177Z,101167.72
2023-04-19T18:14:15.285Z,101167.88
2023-04-19T18:16:42.777Z,101165.84
2023-04-19T18:19:10.297Z,101165.84
2023-04-19T18:21:37.616Z,101174.78
2023-04-19T18:24:05.385Z,101169.78
2023-04-19T18:26:40.612Z,101160.06
2023-04-19T18:29:12.755Z,101157.44
2023-04-19T18:31:41.692Z,101163.75
2023-04-19T18:34:11.234Z,101153.63
2023-04-19T18:36:39.827Z,101155.13
2023-04-19T18:39:07.224Z,101162.13
2023-04-19T18:41:35.509Z,101157.97
2023-04-19T18:46:33.414Z,101161.59
2023-04-19T18:49:01.136Z,101161.44
2023-04-19T18:51:28.960Z,101163.47
2023-04-19T18:53:56.264Z,101164.63
2023-04-19T18:56:54.295Z,101166.19
2023-04-19T18:59:11.266Z,101160.97
2023-04-19T19:01:38.872Z,101174.16
2023-04-19T19:06:36.889Z,101170.72
2023-04-19T19:09:04.067Z,101164.22
2023-04-19T19:14:03.049Z,101168.47
2023-04-19T19:16:31.293Z,101167.00
2023-04-19T19:18:58.619Z,101164.16
2023-04-19T19:21:27.439Z,101170.22
2023-04-19T19:23:57.711Z,101159.34
2023-04-19T19:26:26.179Z,101163.19
2023-04-19T19:28:53.650Z,101165.78
2023-04-19T19:31:21.348Z,101161.72
2023-04-19T19:33:57.050Z,101161.44
2023-04-19T19:36:36.450Z,101164.09
2023-04-19T19:39:03.937Z,101167.00
2023-04-19T19:42:03.431Z,101172.34
2023-04-19T19:44:18.606Z,101158.75
2023-04-19T19:46:46.404Z,101171.53
2023-04-19T19:49:14.068Z,101162.16
2023-04-19T19:51:53.312Z,101168.72
2023-04-19T19:54:24.740Z,101167.72
2023-04-19T19:59:29.178Z,101170.13
2023-04-19T20:01:58.093Z,101169.72
2023-04-19T20:04:25.945Z,101166.19
2023-04-19T20:09:23.477Z,101170.63
2023-04-19T20:11:50.864Z,101161.03
2023-04-19T20:14:18.370Z,101167.22
2023-04-19T20:16:45.880Z,101166.50
2023-04-19T20:19:14.854Z,101164.03
2023-04-19T20:21:42.405Z,101161.22
2023-04-19T20:24:10.153Z,101163.41
2023-04-19T20:26:38.885Z,101155.00
2023-04-19T20:29:06.493Z,101160.56
2023-04-19T20:31:33.762Z,101156.25
2023-04-19T20:34:01.565Z,101160.13
2023-04-19T20:36:31.879Z,101155.59
2023-04-19T20:39:01.732Z,101168.19
2023-04-19T20:41:29.248Z,101161.09
2023-04-19T20:43:57.265Z,101164.22
2023-04-19T20:46:24.816Z,101163.66
2023-04-19T20:48:52.154Z,101173.03
2023-04-19T20:51:19.466Z,101172.59
2023-04-19T20:53:46.750Z,101153.44
2023-04-19T20:56:14.077Z,101167.09
2023-04-19T20:58:43.907Z,101152.41
2023-04-19T21:01:14.342Z,101166.78
2023-04-19T21:03:41.881Z,101161.88
2023-04-19T21:06:09.406Z,101167.25
2023-04-19T21:08:36.848Z,101154.56
2023-04-19T21:11:04.252Z,101165.44
2023-04-19T21:13:32.426Z,101165.63
2023-04-19T21:15:59.769Z,101164.84
2023-04-19T21:18:30.094Z,101168.25
2023-04-19T21:20:57.804Z,101164.63
2023-04-19T21:23:25.191Z,101165.81
2023-04-19T21:25:52.481Z,101172.53
2023-04-19T21:28:20.379Z,101160.66
2023-04-19T21:30:47.774Z,101164.09
2023-04-19T21:33:18.092Z,101163.59
2023-04-19T21:35:45.440Z,101166.06
2023-04-19T21:38:12.868Z,101169.94
2023-04-19T21:40:40.210Z,101156.13
2023-04-19T21:43:07.507Z,101158.91
2023-04-19T21:45:35.296Z,101161.50
2023-04-19T21:48:02.729Z,101168.34
2023-04-19T21:50:30.425Z,101164.44
2023-04-19T21:52:57.687Z,101162.63
2023-04-19T21:55:25.133Z,101154.97
2023-04-19T21:57:52.452Z,101167.38
2023-04-19T22:00:19.941Z,101171.09
2023-04-19T22:02:47.285Z,101160.00
2023-04-19T22:05:14.958Z,101158.72
2023-04-19T22:07:42.719Z,101169.66
2023-04-19T22:10:10.150Z,101166.16
2023-04-19T22:12:45.152Z,101167.78
2023-04-19T22:15:18.782Z,101154.44
2023-04-19T22:17:46.134Z,101161.44
2023-04-19T22:20:14.807Z,101159.81
2023-04-19T22:22:42.053Z,101153.97
2023-04-19T22:25:09.639Z,101163.09
2023-04-19T22:27:36.957Z,101163.34
2023-04-19T22:30:04.763Z,101161.91
2023-04-19T22:32:32.163Z,101156.06
2023-04-19T22:34:59.464Z,101166.09
2023-04-19T22:37:26.745Z,101158.94
2023-04-19T22:39:54.102Z,101151.44
2023-04-19T22:42:21.758Z,101156.34
2023-04-19T22:44:48.998Z,101153.41
2023-04-19T22:47:16.987Z,101146.25
2023-04-19T22:49:45.102Z,101147.56
2023-04-19T22:52:12.779Z,101138.09
2023-04-19T22:54:40.032Z,101138.88
2023-04-19T22:57:07.313Z,101140.16
2023-04-19T22:59:34.562Z,101131.25
2023-04-19T23:02:01.863Z,101131.66
2023-04-19T23:04:33.890Z,101132.47
2023-04-19T23:07:01.172Z,101131.16
2023-04-19T23:09:29.821Z,101129.81
2023-04-19T23:11:58.721Z,101131.66
2023-04-19T23:14:25.989Z,101127.41
2023-04-19T23:16:57.136Z,101126.13
2023-04-19T23:19:25.354Z,101121.66
2023-04-19T23:21:52.767Z,101132.53
2023-04-19T23:24:20.114Z,101134.75
2023-04-19T23:26:47.428Z,101130.63
2023-04-19T23:29:18.604Z,101128.88
2023-04-19T23:31:46.149Z,101122.69
2023-04-19T23:34:14.126Z,101128.44
2023-04-19T23:36:41.516Z,101118.78
2023-04-19T23:39:08.783Z,101120.94
2023-04-19T23:41:36.394Z,101119.56
2023-04-19T23:44:03.642Z,101124.72
2023-04-19T23:46:31.049Z,101113.63
2023-04-19T23:48:58.277Z,101113.13
2023-04-19T23:51:25.522Z,101121.19
2023-04-19T23:53:52.810Z,101110.72
2023-04-19T23:56:20.037Z,101112.03
2023-04-19T23:58:47.226Z,101107.59
